createdAt,value
2022-12-08T00:00:05.648Z,86.60
2022-12-08T00:02:32.461Z,86.60
2022-12-08T00:05:17.589Z,86.60
2022-12-08T00:08:02.930Z,86.60
2022-12-08T00:13:16.202Z,86.60
2022-12-08T00:15:42.729Z,86.70
2022-12-08T00:18:09.286Z,86.80
2022-12-08T00:20:35.845Z,86.80
2022-12-08T00:23:04.093Z,86.80
2022-12-08T00:25:31.788Z,86.80
2022-12-08T00:27:58.387Z,86.90
2022-12-08T00:30:24.925Z,86.80
2022-12-08T00:32:51.464Z,86.90
2022-12-08T00:35:18.144Z,86.90
2022-12-08T00:37:44.671Z,87.00
2022-12-08T00:40:11.312Z,87.00
2022-12-08T00:42:37.853Z,87.10
2022-12-08T00:45:04.850Z,87.00
2022-12-08T00:47:31.385Z,87.00
2022-12-08T00:49:58.037Z,87.10
2022-12-08T00:52:24.569Z,87.00
2022-12-08T00:54:51.117Z,87.00
2022-12-08T00:57:17.648Z,87.00
2022-12-08T00:59:44.208Z,87.10
2022-12-08T01:02:10.839Z,87.10
2022-12-08T01:04:38.426Z,87.00
2022-12-08T01:07:05.029Z,87.00
2022-12-08T01:09:31.621Z,87.10
2022-12-08T01:11:58.280Z,87.10
2022-12-08T01:14:24.902Z,87.20
2022-12-08T01:16:51.568Z,87.20
2022-12-08T01:19:18.397Z,87.20
2022-12-08T01:21:46.351Z,87.20
2022-12-08T01:24:15.489Z,87.20
2022-12-08T01:26:42.103Z,87.20
2022-12-08T01:29:09.609Z,87.30
2022-12-08T01:31:36.934Z,87.20
2022-12-08T01:34:03.743Z,87.30
2022-12-08T01:36:33.029Z,87.30
2022-12-08T01:39:01.503Z,87.30
2022-12-08T01:41:30.962Z,87.30
2022-12-08T01:44:01.828Z,87.20
2022-12-08T01:46:31.744Z,87.30
2022-12-08T01:49:30.404Z,87.30
2022-12-08T01:52:25.187Z,87.20
2022-12-08T01:54:57.713Z,87.30
2022-12-08T01:57:45.481Z,87.30
2022-12-08T02:00:16.474Z,87.40
2022-12-08T02:02:56.277Z,87.40
2022-12-08T02:05:26.922Z,87.30
2022-12-08T02:07:55.899Z,87.40
2022-12-08T02:10:24.702Z,87.50
2022-12-08T02:12:53.841Z,87.40
2022-12-08T02:15:32.593Z,87.40
2022-12-08T02:18:16.556Z,87.30
2022-12-08T02:20:54.663Z,87.40
2022-12-08T02:23:47.922Z,87.40
2022-12-08T02:26:20.513Z,87.50
2022-12-08T02:28:59.849Z,87.50
2022-12-08T02:31:52.501Z,87.50
2022-12-08T02:34:48.885Z,87.50
2022-12-08T02:37:45.089Z,87.50
2022-12-08T02:40:14.371Z,87.50
2022-12-08T02:43:03.784Z,87.50
2022-12-08T02:45:45.661Z,87.50
2022-12-08T02:48:12.469Z,87.40
2022-12-08T02:50:39.023Z,87.50
2022-12-08T02:55:47.580Z,87.50
2022-12-08T02:58:37.200Z,87.40
2022-12-08T03:01:25.477Z,87.40
2022-12-08T03:04:13.957Z,87.50
2022-12-08T03:06:46.605Z,87.50
2022-12-08T03:09:36.025Z,87.60
2022-12-08T03:12:41.181Z,87.50
2022-12-08T03:15:11.771Z,87.40
2022-12-08T03:17:42.734Z,87.50
2022-12-08T03:20:12.866Z,87.50
2022-12-08T03:22:42.001Z,87.50
2022-12-08T03:25:13.167Z,87.50
2022-12-08T03:27:39.852Z,87.50
2022-12-08T03:30:07.694Z,87.50
2022-12-08T03:32:40.491Z,87.50
2022-12-08T03:35:12.272Z,87.50
2022-12-08T03:37:40.174Z,87.50
2022-12-08T03:40:09.916Z,87.60
2022-12-08T03:42:36.492Z,87.50
2022-12-08T03:45:04.009Z,87.50
2022-12-08T03:47:30.688Z,87.50
2022-12-08T03:49:57.304Z,87.60
2022-12-08T03:52:23.954Z,87.50
2022-12-08T03:54:50.517Z,87.40
2022-12-08T03:57:17.193Z,87.30
2022-12-08T03:59:43.771Z,87.20
2022-12-08T04:02:10.433Z,87.00
2022-12-08T04:04:37.008Z,87.00
2022-12-08T04:07:03.600Z,87.00
2022-12-08T04:09:30.165Z,87.00
2022-12-08T04:11:56.754Z,87.00
2022-12-08T04:14:23.298Z,86.90
2022-12-08T04:16:49.872Z,86.80
2022-12-08T04:19:16.426Z,86.90
2022-12-08T04:21:42.973Z,86.80
2022-12-08T04:24:09.728Z,86.80
2022-12-08T04:26:36.364Z,86.70
2022-12-08T04:29:02.927Z,86.70
2022-12-08T04:31:29.539Z,86.70
2022-12-08T04:33:56.164Z,86.60
2022-12-08T04:36:22.754Z,86.70
2022-12-08T04:38:49.320Z,86.70
2022-12-08T04:41:15.870Z,86.70
2022-12-08T04:43:44.256Z,86.70
2022-12-08T04:46:11.195Z,86.70
2022-12-08T04:48:39.042Z,86.70
2022-12-08T04:51:05.765Z,86.70
2022-12-08T04:53:32.515Z,86.70
2022-12-08T04:55:59.278Z,87.00
2022-12-08T04:58:25.807Z,86.70
2022-12-08T05:00:52.431Z,86.70
2022-12-08T05:03:22.548Z,86.70
2022-12-08T05:05:53.361Z,86.70
2022-12-08T05:08:19.979Z,86.80
2022-12-08T05:10:46.662Z,86.80
2022-12-08T05:13:13.206Z,86.70
2022-12-08T05:15:39.733Z,86.80
2022-12-08T05:18:07.349Z,86.70
2022-12-08T05:20:34.477Z,86.70
2022-12-08T05:23:01.216Z,86.70
2022-12-08T05:25:27.797Z,86.70
2022-12-08T05:28:06.221Z,86.60
2022-12-08T05:30:40.868Z,86.60
2022-12-08T05:33:07.586Z,87.20
2022-12-08T05:35:34.130Z,87.20
2022-12-08T05:38:00.663Z,87.30
2022-12-08T05:40:27.200Z,86.90
2022-12-08T05:42:53.765Z,86.80
2022-12-08T05:45:20.319Z,86.60
2022-12-08T05:47:46.874Z,86.60
2022-12-08T05:50:13.453Z,86.70
2022-12-08T05:52:39.987Z,86.60
2022-12-08T05:55:07.047Z,86.60
2022-12-08T05:57:33.596Z,86.50
2022-12-08T06:00:00.192Z,86.60
2022-12-08T06:02:27.255Z,86.60
2022-12-08T06:04:53.857Z,86.60
2022-12-08T06:07:20.384Z,86.60
2022-12-08T06:09:46.995Z,86.70
2022-12-08T06:12:13.657Z,86.30
2022-12-08T06:14:40.592Z,87.10
2022-12-08T06:17:07.340Z,87.00
2022-12-08T06:19:33.989Z,87.00
2022-12-08T06:22:00.546Z,86.90
2022-12-08T06:24:27.252Z,85.20
2022-12-08T06:26:53.922Z,87.20
2022-12-08T06:29:20.474Z,87.00
2022-12-08T06:31:47.228Z,87.60
2022-12-08T06:34:13.801Z,87.40
2022-12-08T06:36:40.332Z,87.50
2022-12-08T06:39:06.928Z,87.40
2022-12-08T06:41:53.437Z,87.20
2022-12-08T06:44:19.997Z,87.20
2022-12-08T06:46:48.621Z,87.20
2022-12-08T06:49:15.389Z,87.20
2022-12-08T06:51:41.911Z,87.10
2022-12-08T06:54:08.475Z,87.10
2022-12-08T06:56:35.057Z,87.20
2022-12-08T06:59:01.571Z,87.20
2022-12-08T07:01:28.133Z,81.00
2022-12-08T07:03:54.738Z,84.00
2022-12-08T07:06:23.720Z,89.50
2022-12-08T07:08:50.563Z,89.00
2022-12-08T07:11:21.402Z,88.20
2022-12-08T07:13:49.217Z,87.70
2022-12-08T07:16:15.874Z,87.20
2022-12-08T07:18:43.823Z,86.90
2022-12-08T07:21:13.105Z,86.70
2022-12-08T07:23:39.782Z,86.60
2022-12-08T07:26:08.249Z,86.50
2022-12-08T07:28:37.446Z,86.40
2022-12-08T07:31:05.304Z,86.40
2022-12-08T07:33:32.636Z,86.40
2022-12-08T07:36:04.646Z,86.40
2022-12-08T07:38:31.737Z,86.40
2022-12-08T07:40:58.377Z,86.50
2022-12-08T07:43:24.958Z,86.40
2022-12-08T07:45:51.957Z,86.40
2022-12-08T07:48:18.602Z,86.40
2022-12-08T07:50:46.291Z,86.40
2022-12-08T07:53:13.225Z,86.40
2022-12-08T07:55:43.695Z,86.40
2022-12-08T07:58:11.004Z,86.40
2022-12-08T08:00:37.636Z,86.40
2022-12-08T08:03:04.366Z,86.40
2022-12-08T08:05:31.041Z,86.40
2022-12-08T08:07:57.652Z,86.40
2022-12-08T08:10:24.339Z,86.40
2022-12-08T08:12:50.911Z,86.40
2022-12-08T08:15:19.185Z,86.40
2022-12-08T08:17:50.110Z,86.50
2022-12-08T08:20:17.006Z,86.40
2022-12-08T08:22:46.034Z,86.40
2022-12-08T08:25:13.434Z,86.30
2022-12-08T08:27:40.285Z,86.40
2022-12-08T08:30:09.309Z,86.40
2022-12-08T08:32:36.568Z,86.40
2022-12-08T08:35:03.477Z,86.40
2022-12-08T08:40:11.069Z,86.70
2022-12-08T08:42:37.592Z,86.80
2022-12-08T08:45:04.583Z,86.80
2022-12-08T08:47:31.129Z,86.70
2022-12-08T08:49:57.659Z,87.10
2022-12-08T08:52:24.196Z,87.20
2022-12-08T08:54:50.742Z,87.20
2022-12-08T08:57:23.639Z,87.30
2022-12-08T08:59:52.010Z,87.30
2022-12-08T09:02:19.824Z,87.30
2022-12-08T09:04:47.095Z,87.50
2022-12-08T09:07:14.046Z,87.50
2022-12-08T09:09:40.820Z,87.60
2022-12-08T09:12:08.049Z,87.80
2022-12-08T09:14:34.663Z,88.00
2022-12-08T09:17:01.348Z,88.00
2022-12-08T09:19:27.939Z,88.00
2022-12-08T09:21:54.628Z,87.70
2022-12-08T09:24:23.620Z,87.60
2022-12-08T09:26:50.215Z,87.80
2022-12-08T09:29:17.579Z,87.70
2022-12-08T09:31:44.261Z,87.80
2022-12-08T09:34:12.204Z,87.80
2022-12-08T09:36:38.981Z,76.00
2022-12-08T09:39:05.890Z,83.70
2022-12-08T09:41:50.141Z,82.70
2022-12-08T09:44:35.473Z,85.10
2022-12-08T09:47:05.449Z,86.80
2022-12-08T09:49:42.389Z,88.50
2022-12-08T09:52:30.032Z,86.90
2022-12-08T09:55:04.329Z,85.50
2022-12-08T09:57:31.936Z,84.50
2022-12-08T10:00:03.261Z,83.90
2022-12-08T10:02:30.889Z,83.90
2022-12-08T10:04:59.012Z,81.70
2022-12-08T10:07:47.287Z,83.90
2022-12-08T10:10:41.679Z,86.90
2022-12-08T10:13:48.316Z,85.90
2022-12-08T10:16:30.277Z,84.80
2022-12-08T10:19:22.547Z,85.00
2022-12-08T10:21:49.842Z,84.50
2022-12-08T10:24:37.230Z,84.60
2022-12-08T10:27:05.375Z,84.30
2022-12-08T10:29:32.005Z,84.30
2022-12-08T10:31:59.793Z,84.30
2022-12-08T10:34:26.631Z,84.40
2022-12-08T10:37:00.599Z,84.60
2022-12-08T10:39:33.076Z,84.60
2022-12-08T10:42:06.490Z,84.40
2022-12-08T10:44:33.253Z,84.50
2022-12-08T10:46:59.904Z,84.40
2022-12-08T10:49:32.211Z,84.30
2022-12-08T10:51:58.791Z,80.10
2022-12-08T10:54:33.532Z,85.30
2022-12-08T10:57:00.320Z,84.50
2022-12-08T10:59:27.356Z,84.30
2022-12-08T11:01:56.163Z,84.20
2022-12-08T11:04:31.266Z,83.90
2022-12-08T11:06:57.850Z,83.70
2022-12-08T11:09:35.617Z,83.70
2022-12-08T11:12:22.129Z,83.50
2022-12-08T11:15:01.000Z,83.60
2022-12-08T11:17:29.526Z,83.70
2022-12-08T11:20:04.039Z,83.80
2022-12-08T11:22:34.662Z,83.90
2022-12-08T11:25:07.093Z,83.90
2022-12-08T11:27:39.128Z,84.00
2022-12-08T11:30:23.872Z,84.00
2022-12-08T11:33:01.335Z,84.10
2022-12-08T11:35:36.651Z,84.20
2022-12-08T11:38:21.140Z,84.30
2022-12-08T11:40:52.332Z,84.30
2022-12-08T11:43:25.420Z,84.30
2022-12-08T11:45:59.063Z,84.40
2022-12-08T11:48:28.553Z,84.40
2022-12-08T11:51:02.413Z,84.40
2022-12-08T11:53:42.648Z,84.50
2022-12-08T11:56:38.018Z,84.60
2022-12-08T11:59:19.824Z,84.70
2022-12-08T12:01:46.423Z,84.80
2022-12-08T12:04:21.674Z,84.90
2022-12-08T12:07:01.884Z,84.80
2022-12-08T12:09:56.540Z,84.90
2022-12-08T12:13:02.555Z,84.90
2022-12-08T12:15:29.101Z,85.10
2022-12-08T12:17:59.130Z,85.40
2022-12-08T12:20:41.352Z,85.70
2022-12-08T12:23:14.071Z,85.80
2022-12-08T12:25:54.559Z,86.10
2022-12-08T12:28:23.593Z,85.90
2022-12-08T12:30:57.823Z,86.00
2022-12-08T12:33:25.281Z,85.70
2022-12-08T12:35:55.503Z,85.70
2022-12-08T12:38:44.750Z,85.60
2022-12-08T12:41:13.529Z,85.60
2022-12-08T12:43:40.491Z,85.60
2022-12-08T12:46:25.397Z,85.60
2022-12-08T12:48:52.662Z,85.70
2022-12-08T12:51:47.561Z,85.70
2022-12-08T12:54:23.388Z,85.70
2022-12-08T12:57:05.140Z,85.80
2022-12-08T12:59:55.263Z,85.70
2022-12-08T13:02:32.937Z,85.80
2022-12-08T13:05:07.533Z,85.80
2022-12-08T13:07:42.228Z,85.80
2022-12-08T13:10:11.577Z,85.80
2022-12-08T13:12:38.180Z,85.70
2022-12-08T13:15:06.730Z,85.80
2022-12-08T13:17:36.967Z,85.80
2022-12-08T13:20:06.935Z,85.80
2022-12-08T13:22:53.534Z,85.90
2022-12-08T13:25:38.872Z,85.80
2022-12-08T13:28:18.538Z,85.80
2022-12-08T13:30:49.920Z,85.80
2022-12-08T13:33:22.185Z,85.90
2022-12-08T13:36:13.037Z,85.90
2022-12-08T13:38:40.044Z,85.90
2022-12-08T13:41:16.055Z,86.00
2022-12-08T13:44:56.760Z,86.00
2022-12-08T13:47:24.652Z,86.00
2022-12-08T13:58:18.222Z,86.00
2022-12-08T14:00:56.802Z,86.00
2022-12-08T14:03:23.615Z,86.00
2022-12-08T14:06:11.895Z,86.00
2022-12-08T14:08:59.997Z,86.00
2022-12-08T14:11:34.082Z,86.00
2022-12-08T14:14:53.735Z,86.00
2022-12-08T14:17:16.288Z,86.00
2022-12-08T14:19:56.416Z,86.00
2022-12-08T14:22:23.680Z,86.00
2022-12-08T14:24:53.116Z,86.00
2022-12-08T14:27:26.149Z,86.00
2022-12-08T14:29:58.407Z,86.00
2022-12-08T14:32:31.384Z,86.10
2022-12-08T14:35:07.019Z,86.10
2022-12-08T14:37:43.724Z,86.10
2022-12-08T14:40:23.776Z,86.10
2022-12-08T14:43:13.604Z,86.20
2022-12-08T14:45:43.135Z,86.20
2022-12-08T14:48:25.904Z,86.20
2022-12-08T14:51:03.572Z,86.20
2022-12-08T14:53:54.855Z,86.20
2022-12-08T14:56:37.031Z,86.20
2022-12-08T14:59:25.160Z,86.20
2022-12-08T15:01:54.910Z,86.20
2022-12-08T15:04:27.182Z,86.20
2022-12-08T15:07:06.030Z,86.20
2022-12-08T15:09:36.004Z,86.10
2022-12-08T15:12:06.173Z,86.50
2022-12-08T15:14:35.902Z,86.40
2022-12-08T15:17:03.337Z,86.20
2022-12-08T15:19:34.274Z,86.20
2022-12-08T15:22:20.685Z,86.10
2022-12-08T15:24:47.218Z,86.70
2022-12-08T15:27:18.884Z,86.00
2022-12-08T15:29:47.524Z,85.90
2022-12-08T15:32:17.862Z,85.90
2022-12-08T15:34:44.420Z,86.00
2022-12-08T15:37:23.155Z,85.90
2022-12-08T15:39:50.497Z,86.00
2022-12-08T15:42:17.172Z,85.90
2022-12-08T15:44:44.067Z,85.90
2022-12-08T15:47:22.075Z,85.90
2022-12-08T15:49:50.482Z,86.00
2022-12-08T15:52:22.895Z,86.00
2022-12-08T15:54:49.752Z,86.20
2022-12-08T15:58:17.118Z,86.20
2022-12-08T16:00:50.431Z,86.20
2022-12-08T16:03:59.318Z,86.30
2022-12-08T16:06:57.437Z,86.40
2022-12-08T16:09:11.358Z,86.40
2022-12-08T16:12:06.573Z,86.40
2022-12-08T16:15:39.100Z,86.50
2022-12-08T16:17:21.079Z,86.60
2022-12-08T16:19:50.607Z,86.70
2022-12-08T16:25:18.098Z,74.70
2022-12-08T16:28:17.518Z,78.50
2022-12-08T16:30:33.351Z,85.00
2022-12-08T16:32:59.923Z,88.20
2022-12-08T16:35:26.471Z,87.30
2022-12-08T16:37:53.108Z,85.70
2022-12-08T16:40:19.744Z,84.60
2022-12-08T16:42:48.359Z,83.90
2022-12-08T16:45:17.629Z,83.50
2022-12-08T16:47:52.772Z,83.30
2022-12-08T16:50:22.164Z,83.40
2022-12-08T16:52:49.416Z,83.70
2022-12-08T16:55:19.313Z,83.80
2022-12-08T16:57:47.353Z,84.10
2022-12-08T17:00:19.108Z,84.20
2022-12-08T17:02:45.926Z,84.40
2022-12-08T17:05:14.882Z,84.50
2022-12-08T17:07:44.110Z,84.60
2022-12-08T17:10:15.082Z,84.60
2022-12-08T17:12:42.187Z,84.80
2022-12-08T17:15:12.993Z,85.00
2022-12-08T17:17:39.924Z,85.20
2022-12-08T17:20:09.626Z,85.20
2022-12-08T17:22:36.314Z,81.60
2022-12-08T17:25:03.386Z,85.90
2022-12-08T17:27:30.044Z,85.90
2022-12-08T17:29:56.662Z,85.70
2022-12-08T17:32:23.537Z,84.20
2022-12-08T17:34:50.491Z,86.10
2022-12-08T17:37:17.498Z,85.90
2022-12-08T17:39:44.216Z,85.70
2022-12-08T17:42:10.891Z,85.70
2022-12-08T17:44:37.585Z,86.30
2022-12-08T17:47:05.129Z,86.40
2022-12-08T17:49:33.791Z,86.20
2022-12-08T17:52:03.386Z,86.10
2022-12-08T17:54:30.559Z,86.00
2022-12-08T17:56:58.665Z,86.00
2022-12-08T17:59:26.242Z,85.70
2022-12-08T18:01:53.831Z,85.50
2022-12-08T18:04:20.966Z,85.60
2022-12-08T18:06:47.676Z,85.50
2022-12-08T18:09:15.574Z,85.60
2022-12-08T18:11:42.952Z,85.70
2022-12-08T18:14:10.118Z,85.80
2022-12-08T18:16:39.044Z,86.20
2022-12-08T18:19:06.836Z,86.10
2022-12-08T18:21:33.577Z,86.10
2022-12-08T18:24:00.466Z,85.90
2022-12-08T18:26:27.364Z,85.80
2022-12-08T18:28:54.013Z,85.80
2022-12-08T18:31:21.910Z,85.90
2022-12-08T18:33:49.300Z,85.80
2022-12-08T18:36:18.535Z,85.80
2022-12-08T18:38:45.644Z,85.90
2022-12-08T18:41:15.265Z,85.90
2022-12-08T18:43:42.024Z,85.90
2022-12-08T18:46:12.146Z,85.90
2022-12-08T18:48:47.257Z,86.00
2022-12-08T18:51:16.903Z,86.00
2022-12-08T18:53:43.608Z,85.80
2022-12-08T18:56:24.762Z,85.80
2022-12-08T18:58:51.486Z,85.80
2022-12-08T19:01:18.262Z,85.70
2022-12-08T19:04:04.709Z,85.70
2022-12-08T19:06:31.935Z,85.70
2022-12-08T19:08:58.631Z,85.70
2022-12-08T19:11:27.725Z,85.70
2022-12-08T19:13:54.999Z,85.50
2022-12-08T19:16:22.569Z,85.40
2022-12-08T19:18:49.174Z,85.40
2022-12-08T19:21:15.763Z,85.50
2022-12-08T19:23:42.519Z,85.50
2022-12-08T19:26:11.073Z,85.60
2022-12-08T19:28:37.677Z,85.50
2022-12-08T19:31:08.618Z,85.50
2022-12-08T19:33:35.640Z,85.40
2022-12-08T19:36:13.392Z,85.40
2022-12-08T19:38:58.920Z,85.30
2022-12-08T19:41:44.682Z,85.30
2022-12-08T19:44:40.154Z,85.30
2022-12-08T19:47:07.091Z,85.30
2022-12-08T19:49:33.811Z,85.30
2022-12-08T19:52:00.894Z,85.30
2022-12-08T19:54:27.731Z,85.30
2022-12-08T19:56:54.374Z,85.30
2022-12-08T19:59:21.356Z,85.30
2022-12-08T20:01:48.348Z,85.30
2022-12-08T20:04:16.448Z,85.30
2022-12-08T20:06:43.984Z,85.20
2022-12-08T20:09:11.806Z,85.20
2022-12-08T20:11:38.816Z,85.20
2022-12-08T20:14:05.816Z,85.20
2022-12-08T20:16:32.832Z,85.10
2022-12-08T20:18:59.559Z,85.10
2022-12-08T20:21:26.242Z,85.10
2022-12-08T20:23:52.827Z,85.20
2022-12-08T20:26:22.317Z,85.10
2022-12-08T20:28:49.797Z,85.00
2022-12-08T20:31:24.526Z,85.10
2022-12-08T20:33:52.124Z,85.10
2022-12-08T20:36:20.796Z,85.10
2022-12-08T20:38:49.899Z,85.10
2022-12-08T20:41:16.845Z,85.40
2022-12-08T20:43:44.911Z,85.10
2022-12-08T20:46:15.462Z,85.10
2022-12-08T20:48:42.675Z,85.20
2022-12-08T20:51:13.108Z,85.50
2022-12-08T20:53:39.699Z,85.70
2022-12-08T20:56:06.657Z,85.50
2022-12-08T20:58:33.290Z,85.30
2022-12-08T21:00:59.948Z,86.00
2022-12-08T21:03:26.620Z,85.30
2022-12-08T21:05:53.531Z,85.30
2022-12-08T21:08:20.518Z,85.30
2022-12-08T21:10:53.888Z,85.30
2022-12-08T21:13:20.640Z,85.20
2022-12-08T21:15:48.158Z,85.30
2022-12-08T21:18:16.623Z,85.40
2022-12-08T21:20:44.547Z,85.50
2022-12-08T21:23:11.400Z,85.50
2022-12-08T21:25:43.635Z,85.50
2022-12-08T21:28:11.177Z,85.70
2022-12-08T21:30:42.066Z,85.70
2022-12-08T21:33:09.259Z,85.80
2022-12-08T21:35:36.046Z,85.80
2022-12-08T21:38:05.258Z,85.90
2022-12-08T21:40:34.486Z,85.90
2022-12-08T21:43:02.091Z,85.90
2022-12-08T21:45:28.941Z,86.00
2022-12-08T21:47:55.659Z,86.10
2022-12-08T21:50:22.563Z,78.00
2022-12-08T21:52:49.996Z,72.10
2022-12-08T21:55:19.117Z,83.30
2022-12-08T21:57:46.314Z,87.20
2022-12-08T22:00:15.387Z,86.00
2022-12-08T22:02:42.897Z,84.30
2022-12-08T22:05:09.959Z,82.90
2022-12-08T22:07:38.990Z,82.30
2022-12-08T22:10:07.634Z,82.20
2022-12-08T22:12:36.236Z,82.10
2022-12-08T22:15:05.646Z,82.10
2022-12-08T22:17:36.948Z,82.20
2022-12-08T22:20:10.127Z,82.30
2022-12-08T22:22:37.354Z,82.50
2022-12-08T22:25:05.527Z,82.70
2022-12-08T22:27:35.390Z,82.90
2022-12-08T22:30:03.064Z,83.00
2022-12-08T22:32:30.222Z,83.20
2022-12-08T22:34:57.172Z,83.30
2022-12-08T22:37:24.237Z,83.50
2022-12-08T22:39:50.965Z,83.60
2022-12-08T22:42:17.751Z,83.70
2022-12-08T22:44:44.610Z,83.90
2022-12-08T22:47:11.573Z,84.00
2022-12-08T22:49:38.281Z,84.10
2022-12-08T22:52:05.159Z,84.30
2022-12-08T22:54:32.060Z,84.30
2022-12-08T22:56:58.836Z,84.40
2022-12-08T22:59:25.464Z,84.60
2022-12-08T23:01:53.965Z,84.60
2022-12-08T23:04:20.713Z,84.70
2022-12-08T23:06:47.404Z,84.80
2022-12-08T23:09:14.025Z,84.80
2022-12-08T23:11:40.728Z,84.70
2022-12-08T23:14:07.449Z,84.80
2022-12-08T23:16:34.181Z,84.80
2022-12-08T23:19:00.977Z,84.80
2022-12-08T23:21:27.661Z,84.80
2022-12-08T23:23:54.333Z,84.80
2022-12-08T23:26:24.824Z,84.80
2022-12-08T23:28:51.406Z,84.90
2022-12-08T23:31:18.876Z,84.90
2022-12-08T23:33:46.174Z,85.00
2022-12-08T23:36:14.302Z,84.90
2022-12-08T23:38:41.199Z,84.90
2022-12-08T23:41:10.193Z,85.00
2022-12-08T23:43:36.943Z,85.00
2022-12-08T23:46:04.335Z,85.00
2022-12-08T23:48:34.378Z,85.00
2022-12-08T23:51:01.930Z,85.00
2022-12-08T23:53:32.814Z,85.00
2022-12-08T23:56:05.330Z,85.00
2022-12-08T23:58:32.906Z,85.00
